createdAt,value
2022-09-26T00:00:32.440Z,14.84
2022-09-26T00:03:19.696Z,14.79
2022-09-26T00:06:08.360Z,14.77
2022-09-26T00:08:55.649Z,14.84
2022-09-26T00:11:44.552Z,14.74
2022-09-26T00:14:31.483Z,14.71
2022-09-26T00:17:18.366Z,14.81
2022-09-26T00:20:05.790Z,14.93
2022-09-26T00:22:52.649Z,14.93
2022-09-26T00:25:51.406Z,14.87
2022-09-26T00:28:38.927Z,14.67
2022-09-26T00:31:30.704Z,14.89
2022-09-26T00:34:19.545Z,14.90
2022-09-26T00:37:06.524Z,15.09
2022-09-26T00:39:53.443Z,15.13
2022-09-26T00:42:40.314Z,15.24
2022-09-26T00:45:30.530Z,14.96
2022-09-26T00:48:19.053Z,14.84
2022-09-26T00:51:06.673Z,14.93
2022-09-26T00:53:54.211Z,15.00
2022-09-26T00:56:43.652Z,14.85
2022-09-26T00:59:37.177Z,14.77
2022-09-26T01:02:27.436Z,14.62
2022-09-26T01:05:18.660Z,14.50
2022-09-26T01:08:06.239Z,14.62
2022-09-26T01:10:53.489Z,14.65
2022-09-26T01:13:40.592Z,14.61
2022-09-26T01:16:27.905Z,14.64
2022-09-26T01:19:39.190Z,14.45
2022-09-26T01:22:54.010Z,14.35
2022-09-26T01:26:11.779Z,14.52
2022-09-26T01:29:15.795Z,14.44
2022-09-26T01:32:43.262Z,14.66
2022-09-26T01:35:51.409Z,14.85
2022-09-26T01:39:23.633Z,14.70
2022-09-26T01:42:45.964Z,14.59
2022-09-26T01:45:59.132Z,14.39
2022-09-26T01:48:52.033Z,14.19
2022-09-26T01:52:05.841Z,14.05
2022-09-26T01:55:07.529Z,14.13
2022-09-26T01:58:01.997Z,14.09
2022-09-26T02:00:50.077Z,13.97
2022-09-26T02:03:41.899Z,13.97
2022-09-26T02:06:35.786Z,13.94
2022-09-26T02:09:40.492Z,14.05
2022-09-26T02:12:32.961Z,14.20
2022-09-26T02:15:21.785Z,14.11
2022-09-26T02:18:17.363Z,13.91
2022-09-26T02:21:13.081Z,13.99
2022-09-26T02:23:59.931Z,13.93
2022-09-26T02:26:46.793Z,13.96
2022-09-26T02:29:34.292Z,14.00
2022-09-26T02:32:26.042Z,14.27
2022-09-26T02:35:32.007Z,14.07
2022-09-26T02:38:18.823Z,13.84
2022-09-26T02:41:47.591Z,13.89
2022-09-26T02:44:52.305Z,14.06
2022-09-26T02:48:17.669Z,14.15
2022-09-26T02:51:32.130Z,13.93
2022-09-26T02:54:22.803Z,14.06
2022-09-26T02:57:51.495Z,14.06
2022-09-26T03:00:53.389Z,13.93
2022-09-26T03:03:43.263Z,14.06
2022-09-26T03:06:35.905Z,14.07
2022-09-26T03:09:24.849Z,13.94
2022-09-26T03:12:12.341Z,13.71
2022-09-26T03:15:00.592Z,14.07
2022-09-26T03:17:53.560Z,14.09
2022-09-26T03:20:41.559Z,14.10
2022-09-26T03:23:29.507Z,13.90
2022-09-26T03:26:20.134Z,13.95
2022-09-26T03:29:07.229Z,13.86
2022-09-26T03:31:54.115Z,13.72
2022-09-26T03:34:41.014Z,13.79
2022-09-26T03:37:27.830Z,13.92
2022-09-26T03:40:15.782Z,14.00
2022-09-26T03:43:02.730Z,14.16
2022-09-26T03:45:50.688Z,13.93
2022-09-26T03:48:38.358Z,13.89
2022-09-26T03:51:25.233Z,13.85
2022-09-26T03:54:13.197Z,14.02
2022-09-26T03:57:00.073Z,14.22
2022-09-26T03:59:46.968Z,13.98
2022-09-26T04:02:34.514Z,13.98
2022-09-26T04:05:21.733Z,13.86
2022-09-26T04:08:09.292Z,13.49
2022-09-26T04:11:07.911Z,13.35
2022-09-26T04:13:54.814Z,13.45
2022-09-26T04:16:41.780Z,13.27
2022-09-26T04:19:28.701Z,13.24
2022-09-26T04:22:15.726Z,13.50
2022-09-26T04:25:02.631Z,13.63
2022-09-26T04:27:49.582Z,13.74
2022-09-26T04:30:37.238Z,13.73
2022-09-26T04:33:24.559Z,13.58
2022-09-26T04:36:13.588Z,13.47
2022-09-26T04:39:00.747Z,13.66
2022-09-26T04:41:47.681Z,13.63
2022-09-26T04:44:34.538Z,13.33
2022-09-26T04:47:21.384Z,13.46
2022-09-26T04:50:08.413Z,13.52
2022-09-26T04:52:55.277Z,13.58
2022-09-26T04:55:49.014Z,13.51
2022-09-26T04:58:38.057Z,13.45
2022-09-26T05:01:25.762Z,13.59
2022-09-26T05:04:13.508Z,13.64
2022-09-26T05:07:00.625Z,13.54
2022-09-26T05:09:47.964Z,13.49
2022-09-26T05:12:34.812Z,13.44
2022-09-26T05:15:21.681Z,13.42
2022-09-26T05:18:09.558Z,13.24
2022-09-26T05:20:57.532Z,13.16
2022-09-26T05:24:02.772Z,13.23
2022-09-26T05:26:52.434Z,13.20
2022-09-26T05:29:39.795Z,13.41
2022-09-26T05:32:29.125Z,13.29
2022-09-26T05:35:16.235Z,13.50
2022-09-26T05:38:04.829Z,13.32
2022-09-26T05:40:57.097Z,13.47
2022-09-26T05:43:44.105Z,13.25
2022-09-26T05:46:32.205Z,13.23
2022-09-26T05:49:19.138Z,13.23
2022-09-26T05:52:06.048Z,13.29
2022-09-26T05:54:52.865Z,12.96
2022-09-26T05:57:39.696Z,13.16
2022-09-26T06:00:27.665Z,13.26
2022-09-26T06:03:15.601Z,13.29
2022-09-26T06:06:03.619Z,13.20
2022-09-26T06:08:50.445Z,13.41
2022-09-26T06:11:37.265Z,13.31
2022-09-26T06:14:26.241Z,13.32
2022-09-26T06:17:13.508Z,12.89
2022-09-26T06:20:00.459Z,12.76
2022-09-26T06:22:47.289Z,13.00
2022-09-26T06:25:34.152Z,13.28
2022-09-26T06:28:21.060Z,13.12
2022-09-26T06:31:16.687Z,13.15
2022-09-26T06:34:05.415Z,13.16
2022-09-26T06:36:52.261Z,13.25
2022-09-26T06:39:39.080Z,13.46
2022-09-26T06:42:26.109Z,13.34
2022-09-26T06:45:12.947Z,13.26
2022-09-26T06:48:03.459Z,13.37
2022-09-26T06:50:54.537Z,13.37
2022-09-26T06:53:42.935Z,13.56
2022-09-26T06:56:29.754Z,13.39
2022-09-26T06:59:16.958Z,13.38
2022-09-26T07:02:04.243Z,13.48
2022-09-26T07:04:52.345Z,13.78
2022-09-26T07:07:45.528Z,13.84
2022-09-26T07:10:34.723Z,14.05
2022-09-26T07:13:21.837Z,14.14
2022-09-26T07:16:08.755Z,14.37
2022-09-26T07:18:55.935Z,14.30
2022-09-26T07:21:42.863Z,14.43
2022-09-26T07:24:29.705Z,14.24
2022-09-26T07:27:17.966Z,14.37
2022-09-26T07:30:06.687Z,14.29
2022-09-26T07:32:58.529Z,14.18
2022-09-26T07:35:46.272Z,14.32
2022-09-26T07:38:33.135Z,14.22
2022-09-26T07:41:19.985Z,14.31
2022-09-26T07:47:32.394Z,14.18
2022-09-26T07:50:19.976Z,14.33
2022-09-26T07:53:06.817Z,14.31
2022-09-26T07:56:06.157Z,14.22
2022-09-26T07:58:54.473Z,14.18
2022-09-26T08:01:41.348Z,14.10
2022-09-26T08:04:28.811Z,14.09
2022-09-26T08:07:16.087Z,14.05
2022-09-26T08:10:05.593Z,14.21
2022-09-26T08:12:52.404Z,14.08
2022-09-26T08:15:39.320Z,14.19
2022-09-26T08:18:26.155Z,14.27
2022-09-26T08:21:13.056Z,14.56
2022-09-26T08:24:00.106Z,14.82
2022-09-26T08:26:46.954Z,14.98
2022-09-26T08:29:34.226Z,14.91
2022-09-26T08:32:21.265Z,14.87
2022-09-26T08:35:12.140Z,14.99
2022-09-26T08:38:03.369Z,15.13
2022-09-26T08:40:56.395Z,14.95
2022-09-26T08:44:10.356Z,15.07
2022-09-26T08:47:06.525Z,15.14
2022-09-26T08:50:02.222Z,15.17
2022-09-26T08:53:24.781Z,15.26
2022-09-26T08:56:26.082Z,15.13
2022-09-26T08:59:22.961Z,15.28
2022-09-26T09:02:38.464Z,15.37
2022-09-26T09:05:31.459Z,15.64
2022-09-26T09:08:41.065Z,15.68
2022-09-26T09:11:43.180Z,15.90
2022-09-26T09:15:20.642Z,15.66
2022-09-26T09:18:13.899Z,15.87
2022-09-26T09:21:41.427Z,16.16
2022-09-26T09:25:00.988Z,16.07
2022-09-26T09:28:08.551Z,15.89
2022-09-26T09:30:59.431Z,15.91
2022-09-26T09:33:50.183Z,16.05
2022-09-26T09:36:50.969Z,15.97
2022-09-26T09:39:41.572Z,16.21
2022-09-26T09:42:39.561Z,16.46
2022-09-26T09:45:36.547Z,16.68
2022-09-26T09:48:27.145Z,16.75
2022-09-26T09:51:42.100Z,16.61
2022-09-26T09:54:56.160Z,16.60
2022-09-26T09:57:50.396Z,16.61
2022-09-26T10:00:51.210Z,16.85
2022-09-26T10:04:21.036Z,16.74
2022-09-26T10:07:08.152Z,16.66
2022-09-26T10:09:55.044Z,17.16
2022-09-26T10:12:43.604Z,16.83
2022-09-26T10:15:31.310Z,16.90
2022-09-26T10:18:26.006Z,17.19
2022-09-26T10:21:19.016Z,16.85
2022-09-26T10:24:07.798Z,16.92
2022-09-26T10:26:54.724Z,16.97
2022-09-26T10:29:41.636Z,16.84
2022-09-26T10:32:29.633Z,16.81
2022-09-26T10:35:24.155Z,17.25
2022-09-26T10:38:27.476Z,17.63
2022-09-26T10:41:24.023Z,17.56
2022-09-26T10:44:30.509Z,17.64
2022-09-26T10:47:26.332Z,18.15
2022-09-26T10:50:27.892Z,18.01
2022-09-26T10:53:15.596Z,18.24
2022-09-26T10:56:10.289Z,18.65
2022-09-26T10:59:10.193Z,18.83
2022-09-26T11:01:59.422Z,18.54
2022-09-26T11:05:05.480Z,18.67
2022-09-26T11:07:52.736Z,17.92
2022-09-26T11:10:42.005Z,17.79
2022-09-26T11:13:32.284Z,17.74
2022-09-26T11:16:20.560Z,17.78
2022-09-26T11:19:19.825Z,18.01
2022-09-26T11:22:32.310Z,17.77
2022-09-26T11:25:26.946Z,17.85
2022-09-26T11:28:24.888Z,18.07
2022-09-26T11:31:30.731Z,17.81
2022-09-26T11:34:26.325Z,17.90
2022-09-26T11:37:30.068Z,17.76
2022-09-26T11:40:31.906Z,17.65
2022-09-26T11:43:37.504Z,17.64
2022-09-26T11:47:01.422Z,17.72
2022-09-26T11:50:24.623Z,17.73
2022-09-26T11:53:31.922Z,17.87
2022-09-26T11:56:25.617Z,18.19
2022-09-26T11:59:37.874Z,18.29
2022-09-26T12:02:47.441Z,18.50
2022-09-26T12:05:54.245Z,18.64
2022-09-26T12:09:04.909Z,19.05
2022-09-26T12:12:16.885Z,18.91
2022-09-26T12:15:25.677Z,19.07
2022-09-26T12:18:25.381Z,19.27
2022-09-26T12:21:21.173Z,19.37
2022-09-26T12:24:34.053Z,19.41
2022-09-26T12:27:44.511Z,19.30
2022-09-26T12:30:43.910Z,19.10
2022-09-26T12:33:49.527Z,18.72
2022-09-26T12:36:48.471Z,18.63
2022-09-26T12:40:01.691Z,18.71
2022-09-26T12:42:59.561Z,18.93
2022-09-26T12:46:10.850Z,19.50
2022-09-26T12:49:10.020Z,19.81
2022-09-26T12:52:27.500Z,19.13
2022-09-26T12:55:37.662Z,19.05
2022-09-26T12:58:46.666Z,19.38
2022-09-26T13:02:12.090Z,18.91
2022-09-26T13:05:18.808Z,19.18
2022-09-26T13:08:15.623Z,19.34
2022-09-26T13:11:15.545Z,19.22
2022-09-26T13:14:21.081Z,19.15
2022-09-26T13:17:25.211Z,18.95
2022-09-26T13:20:31.661Z,19.13
2022-09-26T13:23:37.781Z,19.34
2022-09-26T13:26:37.158Z,19.17
2022-09-26T13:29:29.055Z,18.95
2022-09-26T13:32:27.210Z,19.05
2022-09-26T13:35:24.113Z,19.14
2022-09-26T13:38:20.186Z,19.24
2022-09-26T13:41:23.583Z,19.09
2022-09-26T13:44:22.957Z,19.32
2022-09-26T13:47:37.880Z,19.50
2022-09-26T13:50:34.576Z,19.26
2022-09-26T13:54:03.004Z,19.41
2022-09-26T13:56:50.760Z,19.67
2022-09-26T13:59:51.909Z,19.60
2022-09-26T14:02:39.563Z,19.43
2022-09-26T14:05:28.576Z,19.18
2022-09-26T14:08:43.068Z,19.24
2022-09-26T14:11:51.595Z,19.65
2022-09-26T14:14:43.580Z,19.86
2022-09-26T14:17:50.662Z,20.26
2022-09-26T14:20:56.848Z,19.88
2022-09-26T14:23:45.211Z,19.85
2022-09-26T14:26:42.893Z,19.60
2022-09-26T14:29:29.739Z,19.56
2022-09-26T14:32:34.981Z,19.88
2022-09-26T14:35:48.420Z,20.43
2022-09-26T14:38:40.223Z,20.45
2022-09-26T14:41:30.364Z,20.13
2022-09-26T14:44:20.653Z,19.62
2022-09-26T14:47:14.884Z,19.54
2022-09-26T14:50:06.733Z,19.47
2022-09-26T14:52:57.530Z,19.60
2022-09-26T14:56:32.488Z,19.26
2022-09-26T14:59:19.305Z,19.10
2022-09-26T15:02:15.383Z,19.06
2022-09-26T15:05:08.599Z,18.94
2022-09-26T15:07:55.875Z,18.91
2022-09-26T15:10:42.833Z,18.88
2022-09-26T15:13:42.508Z,18.80
2022-09-26T15:16:37.553Z,19.00
2022-09-26T15:19:35.782Z,18.93
2022-09-26T15:22:25.680Z,19.05
2022-09-26T15:25:30.688Z,19.14
2022-09-26T15:28:17.634Z,19.33
2022-09-26T15:31:41.376Z,19.58
2022-09-26T15:34:39.824Z,19.60
2022-09-26T15:37:30.177Z,19.28
2022-09-26T15:40:19.738Z,19.39
2022-09-26T15:43:20.460Z,19.46
2022-09-26T15:46:24.121Z,19.38
2022-09-26T15:49:20.198Z,19.29
2022-09-26T15:52:07.533Z,19.25
2022-09-26T15:54:54.689Z,19.30
2022-09-26T15:57:42.736Z,19.21
2022-09-26T16:00:37.633Z,19.01
2022-09-26T16:03:27.517Z,18.87
2022-09-26T16:06:37.519Z,18.87
2022-09-26T16:09:40.108Z,18.91
2022-09-26T16:12:31.773Z,18.67
2022-09-26T16:15:21.868Z,18.70
2022-09-26T16:18:25.270Z,18.71
2022-09-26T16:21:19.871Z,18.74
2022-09-26T16:24:30.445Z,18.77
2022-09-26T16:27:33.221Z,18.89
2022-09-26T16:30:27.167Z,18.85
2022-09-26T16:33:26.347Z,18.74
2022-09-26T16:36:18.734Z,18.67
2022-09-26T16:39:11.969Z,18.63
2022-09-26T16:42:07.384Z,18.53
2022-09-26T16:44:55.494Z,18.44
2022-09-26T16:47:44.627Z,18.45
2022-09-26T16:50:33.983Z,18.47
2022-09-26T16:53:21.488Z,18.36
2022-09-26T16:56:11.925Z,18.37
2022-09-26T16:59:04.124Z,18.31
2022-09-26T17:01:54.878Z,18.36
2022-09-26T17:04:43.364Z,18.32
2022-09-26T17:07:30.232Z,18.28
2022-09-26T17:10:18.459Z,18.25
2022-09-26T17:13:13.913Z,18.27
2022-09-26T17:16:03.511Z,18.24
2022-09-26T17:18:51.126Z,18.15
2022-09-26T17:21:38.784Z,18.00
2022-09-26T17:24:28.147Z,17.86
2022-09-26T17:27:16.566Z,17.76
2022-09-26T17:30:08.090Z,17.69
2022-09-26T17:32:55.142Z,17.66
2022-09-26T17:35:42.307Z,17.66
2022-09-26T17:38:29.276Z,17.58
2022-09-26T17:41:16.534Z,17.57
2022-09-26T17:44:03.557Z,17.52
2022-09-26T17:46:54.108Z,17.57
2022-09-26T17:49:42.289Z,17.46
2022-09-26T17:52:31.578Z,17.50
2022-09-26T17:55:20.222Z,17.48
2022-09-26T17:58:10.277Z,17.49
2022-09-26T18:00:57.326Z,17.40
2022-09-26T18:03:45.047Z,17.37
2022-09-26T18:06:32.886Z,17.37
2022-09-26T18:09:21.000Z,17.33
2022-09-26T18:12:13.711Z,17.34
2022-09-26T18:15:03.799Z,17.40
2022-09-26T18:17:51.594Z,17.29
2022-09-26T18:20:39.415Z,17.31
2022-09-26T18:23:29.263Z,17.41
2022-09-26T18:26:28.930Z,17.40
2022-09-26T18:29:22.645Z,17.41
2022-09-26T18:32:19.731Z,17.34
2022-09-26T18:35:15.986Z,17.27
2022-09-26T18:38:03.461Z,17.30
2022-09-26T18:40:55.326Z,17.31
2022-09-26T18:43:42.946Z,17.39
2022-09-26T18:46:30.516Z,17.37
2022-09-26T18:49:17.864Z,17.30
2022-09-26T18:52:06.329Z,17.29
2022-09-26T18:55:13.178Z,17.31
2022-09-26T18:58:18.384Z,17.25
2022-09-26T19:01:11.753Z,17.32
2022-09-26T19:04:01.860Z,17.26
2022-09-26T19:06:58.921Z,17.22
2022-09-26T19:09:46.042Z,17.26
2022-09-26T19:12:33.136Z,17.06
2022-09-26T19:15:19.971Z,17.05
2022-09-26T19:18:06.804Z,17.04
2022-09-26T19:20:54.163Z,17.00
2022-09-26T19:23:41.364Z,17.04
2022-09-26T19:26:38.959Z,16.95
2022-09-26T19:29:34.575Z,17.03
2022-09-26T19:32:31.097Z,16.95
2022-09-26T19:35:33.394Z,16.89
2022-09-26T19:38:23.548Z,16.95
2022-09-26T19:41:10.486Z,16.86
2022-09-26T19:43:57.431Z,16.94
2022-09-26T19:46:46.046Z,16.92
2022-09-26T19:49:33.057Z,17.05
2022-09-26T19:52:21.011Z,17.10
2022-09-26T19:55:28.745Z,17.07
2022-09-26T19:58:25.837Z,17.06
2022-09-26T20:01:18.451Z,16.99
2022-09-26T20:04:12.952Z,16.90
2022-09-26T20:06:59.910Z,16.96
2022-09-26T20:09:47.451Z,16.99
2022-09-26T20:12:34.285Z,16.94
2022-09-26T20:15:24.216Z,16.98
2022-09-26T20:18:24.180Z,17.00
2022-09-26T20:21:13.412Z,16.95
2022-09-26T20:24:00.724Z,16.97
2022-09-26T20:26:48.220Z,16.83
2022-09-26T20:29:55.352Z,16.84
2022-09-26T20:32:42.864Z,16.69
2022-09-26T20:35:35.618Z,16.54
2022-09-26T20:38:27.860Z,16.41
2022-09-26T20:41:17.453Z,16.40
2022-09-26T20:44:27.948Z,16.23
2022-09-26T20:47:19.673Z,16.11
2022-09-26T20:50:07.775Z,16.17
2022-09-26T20:52:54.631Z,16.01
2022-09-26T20:55:44.090Z,16.03
2022-09-26T20:58:31.266Z,15.92
2022-09-26T21:01:20.394Z,15.76
2022-09-26T21:04:13.729Z,15.74
2022-09-26T21:07:00.618Z,15.82
2022-09-26T21:09:47.530Z,15.83
2022-09-26T21:12:34.353Z,15.79
2022-09-26T21:15:27.025Z,15.87
2022-09-26T21:18:23.247Z,15.59
2022-09-26T21:21:21.040Z,15.71
2022-09-26T21:24:14.406Z,15.71
2022-09-26T21:27:01.375Z,15.59
2022-09-26T21:29:48.217Z,15.60
2022-09-26T21:32:35.103Z,15.55
2022-09-26T21:35:24.896Z,15.68
2022-09-26T21:38:11.802Z,15.62
2022-09-26T21:41:00.613Z,15.49
2022-09-26T21:43:55.254Z,15.33
2022-09-26T21:46:42.143Z,15.28
2022-09-26T21:49:30.225Z,15.33
2022-09-26T21:52:23.935Z,15.31
2022-09-26T21:55:22.341Z,15.16
2022-09-26T21:58:13.248Z,15.25
2022-09-26T22:01:00.244Z,15.27
2022-09-26T22:03:47.230Z,15.43
2022-09-26T22:06:34.731Z,15.45
2022-09-26T22:09:21.593Z,15.42
2022-09-26T22:12:08.473Z,15.31
2022-09-26T22:14:55.601Z,15.38
2022-09-26T22:17:42.934Z,15.24
2022-09-26T22:20:29.826Z,15.23
2022-09-26T22:23:16.754Z,15.31
2022-09-26T22:26:03.912Z,15.25
2022-09-26T22:28:50.879Z,15.29
2022-09-26T22:31:38.247Z,15.24
2022-09-26T22:34:26.233Z,15.34
2022-09-26T22:37:13.102Z,15.13
2022-09-26T22:40:00.022Z,15.23
2022-09-26T22:42:49.903Z,15.10
2022-09-26T22:45:37.248Z,15.18
2022-09-26T22:48:24.098Z,15.14
2022-09-26T22:51:11.073Z,15.19
2022-09-26T22:53:57.950Z,15.15
2022-09-26T22:56:44.788Z,15.16
2022-09-26T22:59:31.639Z,15.31
2022-09-26T23:02:18.509Z,15.37
2022-09-26T23:05:05.784Z,15.36
2022-09-26T23:07:54.652Z,15.19
2022-09-26T23:10:48.493Z,15.24
2022-09-26T23:13:35.847Z,15.17
2022-09-26T23:16:26.704Z,15.12
2022-09-26T23:19:13.597Z,15.12
2022-09-26T23:22:00.818Z,15.23
2022-09-26T23:24:47.685Z,15.14
2022-09-26T23:27:35.481Z,15.15
2022-09-26T23:30:23.131Z,15.21
2022-09-26T23:33:10.619Z,15.16
2022-09-26T23:35:58.253Z,15.32
2022-09-26T23:38:45.544Z,15.24
2022-09-26T23:41:32.394Z,15.42
2022-09-26T23:44:19.245Z,14.59
2022-09-26T23:47:06.140Z,14.34
2022-09-26T23:49:53.326Z,13.76
2022-09-26T23:52:40.210Z,13.55
2022-09-26T23:55:27.286Z,13.78
2022-09-26T23:58:14.764Z,13.29
